Elmendorf AFB, Alaska
Current Conditions -  °F | °C
As of 5:58 AM on Monday 22 Dec 2014 (Local Time) from PAED Reporting Station
Light Snow Light Snow  
Wind Chill: 25°   Ceiling: 3500
Heat Index: 25°   Visibility: 4mi
Dew Point: 24°   Wind: 0mph
Humidity: 96%   Direction: NA
Pressure: 29.64"   Gusts: NA
Location:  61.24°N, 149.82°W
Report Text: PAED 221458Z 00000KT 4SM -SN BR OVC035 M04/M05 A2964 RMK AO2A SLP035 P0000 60000 T10401046 52014
Loading
Personal Weather Stations






























Interactive Weather Map New forecast layout! Learn more

10-Day Weather Forecast

Advertisements
Track Severe Weather on mobile